Terminal Aerodrome Forecast
Issued by NWS Sterling, VA

Home | Current Version | Previous Version | Text Only | Print | Product List | Glossary On
Versions: 1 2 3 4 5 6 7 8 9 10 11 12 13 14 15 16 17 18 19 20 21 22 23 24
000
FTUS41 KLWX 300500
TAFIAD
TAF
KIAD 300540Z 3006/3112 23006KT P6SM BKN050
     FM300800 30010KT P6SM BKN050
     FM301100 31011G18KT P6SM SCT050 BKN100
     FM301400 31014G23KT P6SM BKN040
     FM301900 32022G34KT P6SM SCT040
     FM310300 31016G27KT P6SM FEW250
     FM311100 31011G19KT P6SM FEW250=

USA.gov is the U.S. government's official web portal to all federal, state and local government web resources and services.